Time;durP1;ratioP1;P1;durP2;ratioP2;P2;SDS_P1;SDS_P2;PMS_P1;PMS_P2;Temp;Humidity;BMP_temperature;BMP_pressure;BME280_temperature;BME280_humidity;BME280_pressure;Samples;Min_cycle;Max_cycle;Signal;HPM_P1;HPM_P2
2022/05/03 00:02:12;;;;;;;1.30;1.30;;;12.90;99.90;;;;;;5025716;28;20184;-67
2022/05/03 00:04:55;;;;;;;1.17;1.17;;;12.90;99.90;;;;;;5016797;28;20295;-68
2022/05/03 00:07:25;;;;;;;1.30;1.30;;;12.80;99.90;;;;;;5018982;28;20233;-68
2022/05/03 00:10:02;;;;;;;1.27;1.23;;;12.80;99.90;;;;;;5016542;28;20206;-68
2022/05/03 00:12:34;;;;;;;1.10;1.10;;;12.80;99.90;;;;;;5017539;28;20225;-68
2022/05/03 00:15:02;;;;;;;1.20;1.20;;;12.70;99.90;;;;;;5015714;28;20212;-69
2022/05/03 00:17:31;;;;;;;1.10;1.10;;;12.70;99.90;;;;;;5012936;28;20322;-68
2022/05/03 00:19:59;;;;;;;1.20;1.20;;;12.70;99.90;;;;;;5011796;28;20663;-67
2022/05/03 00:22:26;;;;;;;1.20;1.20;;;12.60;99.90;;;;;;5016731;28;20209;-68
2022/05/03 00:24:55;;;;;;;1.30;1.20;;;12.60;99.90;;;;;;5013662;28;20236;-68
2022/05/03 00:27:25;;;;;;;1.10;1.10;;;12.60;99.90;;;;;;5017804;28;20221;-68
2022/05/03 00:29:53;;;;;;;1.30;1.30;;;12.50;99.90;;;;;;5014550;28;20290;-68
2022/05/03 00:32:21;;;;;;;1.30;1.30;;;12.50;99.90;;;;;;5017967;28;20623;-68
2022/05/03 00:34:50;;;;;;;1.20;1.20;;;12.40;99.90;;;;;;5017812;28;20208;-68
2022/05/03 00:37:17;;;;;;;1.20;1.20;;;12.30;99.90;;;;;;5014994;28;20225;-68
2022/05/03 00:39:44;;;;;;;1.10;1.10;;;12.30;99.90;;;;;;5012665;28;20311;-68
2022/05/03 00:42:18;;;;;;;1.47;1.40;;;12.30;99.90;;;;;;5029563;28;20212;-69
2022/05/03 00:45:01;;;;;;;1.25;1.25;;;12.20;99.90;;;;;;5030674;28;20229;-70
2022/05/03 00:47:36;;;;;;;1.40;1.30;;;12.20;99.90;;;;;;5034580;28;20252;-69
2022/05/03 00:50:07;;;;;;;1.40;1.30;;;12.10;99.90;;;;;;5038251;28;20246;-68
2022/05/03 00:52:41;;;;;;;1.67;1.60;;;12.00;99.90;;;;;;5034550;28;20315;-69
2022/05/03 00:55:29;;;;;;;1.30;1.30;;;12.00;99.90;;;;;;5021187;28;20726;-69
2022/05/03 00:58:10;;;;;;;1.40;1.30;;;12.00;99.90;;;;;;5030439;28;20308;-68
2022/05/03 01:00:43;;;;;;;1.50;1.40;;;11.90;99.90;;;;;;5034228;28;20185;-68
2022/05/03 01:03:15;;;;;;;1.20;1.20;;;11.80;99.90;;;;;;5033762;28;20304;-68
2022/05/03 01:06:07;;;;;;;1.43;1.33;;;11.80;99.90;;;;;;5034384;28;20200;-68
2022/05/03 01:08:41;;;;;;;1.30;1.30;;;11.70;99.90;;;;;;5032947;28;20670;-68
2022/05/03 01:11:25;;;;;;;1.40;1.40;;;11.60;99.90;;;;;;5033685;28;20189;-68
2022/05/03 01:13:58;;;;;;;1.63;1.53;;;11.60;99.90;;;;;;5033029;28;20212;-67
2022/05/03 01:16:32;;;;;;;1.50;1.50;;;11.50;99.90;;;;;;5033065;28;20295;-68
2022/05/03 01:19:07;;;;;;;1.30;1.30;;;11.50;99.90;;;;;;5028801;28;20749;-67
2022/05/03 01:21:53;;;;;;;1.30;1.30;;;11.50;99.90;;;;;;5033615;28;20192;-68
2022/05/03 01:24:33;;;;;;;1.53;1.43;;;11.50;99.90;;;;;;5033054;28;20591;-68
2022/05/03 01:27:27;;;;;;;1.30;1.30;;;11.40;99.90;;;;;;5033059;28;20228;-68
2022/05/03 01:29:59;;;;;;;1.30;1.30;;;11.40;99.90;;;;;;5025485;28;20591;-69
2022/05/03 01:32:27;;;;;;;1.83;1.50;;;11.40;99.90;;;;;;5015505;28;20225;-68
2022/05/03 01:34:55;;;;;;;1.50;1.40;;;11.30;99.90;;;;;;5016637;28;20264;-68
2022/05/03 01:37:48;;;;;;;1.27;1.27;;;11.30;99.90;;;;;;5015045;28;20249;-68
2022/05/03 01:40:24;;;;;;;1.83;1.50;;;11.30;99.90;;;;;;5017703;28;20232;-68
2022/05/03 01:43:11;;;;;;;1.50;1.50;;;11.30;99.90;;;;;;5016562;28;20229;-69
2022/05/03 01:45:53;;;;;;;1.60;1.50;;;11.20;99.90;;;;;;5018719;28;20584;-68
2022/05/03 01:50:18;;;;;;;1.30;1.30;;;11.20;99.90;;;;;;5015510;28;20221;-69
2022/05/03 01:51:26;;;;;;;1.47;1.40;;;11.10;99.90;;;;;;5014396;28;20205;-68
2022/05/03 01:54:04;;;;;;;1.60;1.53;;;11.10;99.90;;;;;;5012089;28;20730;-69
2022/05/03 01:56:42;;;;;;;1.47;1.47;;;11.10;99.90;;;;;;5019345;28;20197;-67
2022/05/03 01:59:22;;;;;;;1.30;1.30;;;11.10;99.90;;;;;;5017928;28;20201;-69
2022/05/03 02:01:56;;;;;;;1.40;1.40;;;11.20;99.90;;;;;;5017113;28;20271;-69
2022/05/03 02:04:44;;;;;;;1.40;1.40;;;11.20;99.90;;;;;;5046155;28;20187;-68
2022/05/03 02:07:18;;;;;;;1.30;1.20;;;11.20;99.90;;;;;;5042157;28;20233;-69
2022/05/03 02:10:02;;;;;;;1.30;1.30;;;11.20;99.90;;;;;;5039829;28;20232;-68
2022/05/03 02:12:29;;;;;;;1.33;1.33;;;11.20;99.90;;;;;;5015950;28;20214;-69
2022/05/03 02:15:03;;;;;;;1.43;1.40;;;11.30;99.90;;;;;;5019183;28;20304;-68
2022/05/03 02:17:51;;;;;;;1.43;1.23;;;11.30;99.90;;;;;;5017599;28;20328;-68
2022/05/03 02:20:52;;;;;;;1.30;1.30;;;11.30;99.90;;;;;;5014234;28;20229;-69
2022/05/03 02:23:46;;;;;;;1.30;1.30;;;11.40;99.90;;;;;;5012281;28;20224;-68
2022/05/03 02:26:31;;;;;;;1.30;1.30;;;11.30;99.90;;;;;;5015124;28;20629;-67
2022/05/03 02:29:04;;;;;;;1.30;1.30;;;11.30;99.90;;;;;;5017656;28;20291;-68
2022/05/03 02:31:47;;;;;;;1.43;1.43;;;11.20;99.90;;;;;;5016419;28;20292;-69
2022/05/03 02:34:24;;;;;;;1.50;1.50;;;11.10;99.90;;;;;;5023254;28;20721;-67
2022/05/03 02:37:01;;;;;;;1.33;1.33;;;11.10;99.90;;;;;;5028821;28;20234;-68
2022/05/03 02:39:31;;;;;;;1.20;1.20;;;10.90;99.90;;;;;;5035159;28;20214;-69
2022/05/03 02:42:02;;;;;;;1.30;1.20;;;10.90;99.90;;;;;;5035688;28;20740;-68
2022/05/03 02:44:31;;;;;;;1.45;1.45;;;10.90;99.90;;;;;;5035581;28;20272;-68
2022/05/03 02:47:06;;;;;;;1.40;1.40;;;10.90;99.90;;;;;;5036280;28;20319;-68
2022/05/03 02:49:47;;;;;;;1.40;1.40;;;10.80;99.90;;;;;;5036469;28;20231;-69
2022/05/03 02:52:22;;;;;;;1.60;1.50;;;10.80;99.90;;;;;;5038812;28;20228;-69
2022/05/03 02:54:58;;;;;;;1.33;1.33;;;10.70;99.90;;;;;;5037173;28;20296;-67
2022/05/03 02:57:34;;;;;;;1.67;1.57;;;10.70;99.90;;;;;;5036520;28;20220;-68
2022/05/03 03:03:17;;;;;;;1.37;1.37;;;10.70;99.90;;;;;;5035669;28;20617;-68
2022/05/03 03:05:50;;;;;;;1.20;1.20;;;10.70;99.90;;;;;;5035580;28;20200;-69
2022/05/03 03:08:20;;;;;;;1.30;1.30;;;10.70;99.90;;;;;;5054760;22;20238;-62
2022/05/03 03:10:52;;;;;;;1.60;1.50;;;10.70;99.90;;;;;;5037130;28;20663;-62
2022/05/03 03:13:31;;;;;;;1.40;1.40;;;10.70;99.90;;;;;;5035084;28;20224;-64
2022/05/03 03:15:57;;;;;;;1.33;1.33;;;10.70;99.90;;;;;;5036627;28;20193;-62
2022/05/03 03:18:27;;;;;;;1.30;1.30;;;10.70;99.90;;;;;;5034002;28;20737;-63
2022/05/03 03:20:58;;;;;;;1.35;1.35;;;10.70;99.90;;;;;;5035342;28;20291;-61
2022/05/03 03:23:28;;;;;;;1.73;1.63;;;10.80;99.90;;;;;;5035798;28;20561;-62
2022/05/03 03:25:55;;;;;;;1.40;1.40;;;10.70;99.90;;;;;;5035079;28;20215;-64
2022/05/03 03:28:24;;;;;;;1.47;1.47;;;10.70;99.90;;;;;;5034076;28;20315;-63
2022/05/03 03:30:52;;;;;;;1.33;1.33;;;10.70;99.90;;;;;;5035645;28;20679;-63
2022/05/03 03:33:20;;;;;;;1.33;1.33;;;10.70;99.90;;;;;;5035979;28;20307;-64
2022/05/03 03:35:48;;;;;;;1.40;1.40;;;10.60;99.90;;;;;;5034312;28;20649;-63
2022/05/03 03:38:17;;;;;;;1.30;1.30;;;10.60;99.90;;;;;;5034456;28;20278;-64
2022/05/03 03:40:45;;;;;;;1.30;1.30;;;10.60;99.90;;;;;;5035121;28;20240;-65
2022/05/03 03:43:13;;;;;;;1.58;1.40;;;10.60;99.90;;;;;;5034648;28;20204;-62
2022/05/03 03:45:41;;;;;;;1.30;1.30;;;10.60;99.90;;;;;;5038435;28;20786;-64
2022/05/03 03:48:09;;;;;;;1.42;1.40;;;10.60;99.90;;;;;;5041349;28;20296;-63
2022/05/03 03:50:37;;;;;;;1.50;1.50;;;10.60;99.90;;;;;;5047125;28;20566;-65
2022/05/03 03:53:05;;;;;;;1.30;1.30;;;10.60;99.90;;;;;;5046703;28;20231;-63
2022/05/03 03:55:35;;;;;;;1.40;1.40;;;10.60;99.90;;;;;;5045736;28;20232;-63
2022/05/03 03:58:02;;;;;;;1.53;1.30;;;10.60;99.90;;;;;;5034085;28;20279;-63
2022/05/03 04:00:30;;;;;;;1.50;1.50;;;10.60;99.90;;;;;;5033373;28;20627;-64
2022/05/03 04:02:58;;;;;;;1.40;1.40;;;10.60;99.90;;;;;;5033639;28;20296;-64
2022/05/03 04:05:27;;;;;;;1.50;1.50;;;10.60;99.90;;;;;;5033818;28;20212;-65
2022/05/03 04:07:54;;;;;;;1.40;1.40;;;10.50;99.90;;;;;;5033663;28;20237;-63
2022/05/03 04:10:22;;;;;;;1.30;1.30;;;10.50;99.90;;;;;;5033413;28;20662;-62
2022/05/03 04:12:50;;;;;;;1.40;1.40;;;10.40;99.90;;;;;;5041578;28;20292;-64
2022/05/03 04:15:17;;;;;;;1.57;1.57;;;10.30;99.90;;;;;;5065121;28;20280;-65
2022/05/03 04:17:44;;;;;;;1.30;1.30;;;10.30;99.90;;;;;;5073306;28;20278;-63
2022/05/03 04:20:12;;;;;;;1.40;1.40;;;10.30;99.90;;;;;;5073002;28;20247;-62
2022/05/03 04:22:39;;;;;;;1.30;1.30;;;10.30;99.90;;;;;;5076963;28;20203;-62
2022/05/03 04:25:07;;;;;;;1.58;1.50;;;10.30;99.90;;;;;;5075884;28;20234;-63
2022/05/03 04:27:34;;;;;;;1.30;1.30;;;10.30;99.90;;;;;;5073535;28;20305;-63
2022/05/03 04:30:04;;;;;;;1.30;1.30;;;10.30;99.90;;;;;;5073129;28;20239;-62
2022/05/03 04:32:31;;;;;;;1.40;1.40;;;10.40;99.90;;;;;;5073761;28;20276;-62
2022/05/03 04:34:59;;;;;;;1.53;1.43;;;10.40;99.90;;;;;;5073049;28;20294;-63
2022/05/03 04:37:27;;;;;;;1.50;1.50;;;10.40;99.90;;;;;;5069026;28;20583;-63
2022/05/03 04:39:54;;;;;;;1.58;1.48;;;10.50;99.90;;;;;;5066957;28;20199;-63
2022/05/03 04:42:21;;;;;;;1.30;1.30;;;10.50;99.90;;;;;;5073289;28;20312;-63
2022/05/03 04:44:48;;;;;;;1.20;1.20;;;10.50;99.90;;;;;;5074694;28;20235;-63
2022/05/03 04:47:16;;;;;;;1.58;1.48;;;10.60;99.90;;;;;;5053152;28;20251;-63
2022/05/03 04:49:43;;;;;;;1.40;1.30;;;10.60;99.90;;;;;;5051470;28;20287;-63
2022/05/03 04:52:11;;;;;;;1.47;1.37;;;10.60;99.90;;;;;;5060017;28;20199;-63
2022/05/03 04:54:38;;;;;;;1.63;1.53;;;10.60;99.90;;;;;;5053615;28;20220;-62
2022/05/03 04:57:07;;;;;;;1.30;1.30;;;10.70;99.90;;;;;;5063614;28;20302;-63
2022/05/03 04:59:35;;;;;;;1.40;1.40;;;10.70;99.90;;;;;;5060676;28;20632;-63
2022/05/03 05:02:01;;;;;;;1.70;1.60;;;10.80;99.90;;;;;;5056999;28;20306;-63
2022/05/03 05:04:30;;;;;;;1.30;1.30;;;10.70;99.90;;;;;;5065253;28;20277;-63
2022/05/03 05:06:57;;;;;;;1.55;1.48;;;10.70;99.90;;;;;;5054844;28;20671;-62
2022/05/03 05:09:23;;;;;;;1.70;1.60;;;10.70;99.90;;;;;;5063783;28;20250;-64
2022/05/03 05:11:51;;;;;;;1.40;1.40;;;10.70;99.90;;;;;;5060201;28;20235;-62
2022/05/03 05:14:20;;;;;;;1.45;1.45;;;10.70;99.90;;;;;;5059070;28;20282;-64
2022/05/03 05:16:47;;;;;;;1.65;1.58;;;10.70;99.90;;;;;;5061976;28;20209;-63
2022/05/03 05:19:15;;;;;;;1.48;1.48;;;10.70;99.90;;;;;;5052024;28;20250;-63
2022/05/03 05:21:43;;;;;;;1.60;1.50;;;10.70;99.90;;;;;;5067962;28;20294;-62
2022/05/03 05:24:11;;;;;;;1.63;1.45;;;10.70;99.90;;;;;;5057055;28;20200;-63
2022/05/03 05:26:40;;;;;;;1.50;1.40;;;10.80;99.90;;;;;;5061221;28;20203;-63
2022/05/03 05:29:07;;;;;;;1.40;1.33;;;10.70;99.90;;;;;;5068477;28;20246;-63
2022/05/03 05:31:34;;;;;;;1.40;1.40;;;10.80;99.90;;;;;;5057632;28;20200;-62
2022/05/03 05:34:01;;;;;;;1.50;1.40;;;10.80;99.90;;;;;;5054420;28;20224;-63
2022/05/03 05:36:28;;;;;;;1.40;1.40;;;10.80;99.90;;;;;;5047715;28;20206;-63
2022/05/03 05:38:56;;;;;;;1.40;1.40;;;10.80;99.90;;;;;;5057382;28;20305;-63
2022/05/03 05:41:23;;;;;;;1.50;1.40;;;10.90;99.90;;;;;;5056672;28;20223;-64
2022/05/03 05:43:50;;;;;;;1.30;1.30;;;11.20;99.90;;;;;;5078368;28;20235;-64
2022/05/03 05:46:17;;;;;;;1.40;1.40;;;11.30;99.90;;;;;;5066784;28;20228;-65
2022/05/03 05:48:45;;;;;;;1.40;1.30;;;11.60;99.90;;;;;;5060705;28;20258;-63
2022/05/03 05:51:13;;;;;;;1.58;1.50;;;11.70;99.90;;;;;;5056061;28;20215;-64
2022/05/03 05:53:39;;;;;;;1.75;1.40;;;11.80;99.90;;;;;;5052678;28;20689;-63
2022/05/03 05:56:09;;;;;;;1.55;1.45;;;11.90;99.90;;;;;;5052163;28;20204;-64
2022/05/03 05:58:37;;;;;;;3.20;1.50;;;12.10;99.90;;;;;;5038604;28;20223;-62
2022/05/03 06:01:04;;;;;;;1.90;1.60;;;12.30;99.90;;;;;;5042918;28;20206;-62
2022/05/03 06:03:32;;;;;;;1.40;1.40;;;12.30;99.90;;;;;;5049483;28;20689;-64
2022/05/03 06:05:59;;;;;;;1.40;1.40;;;12.30;99.90;;;;;;5055559;28;20215;-64
2022/05/03 06:08:26;;;;;;;1.50;1.40;;;12.30;99.90;;;;;;5057870;28;20614;-63
2022/05/03 06:10:57;;;;;;;1.35;1.33;;;12.40;99.90;;;;;;5054981;28;20224;-63
2022/05/03 06:13:26;;;;;;;1.50;1.40;;;12.50;99.90;;;;;;5050684;28;20626;-63
2022/05/03 06:15:54;;;;;;;1.50;1.40;;;12.40;99.90;;;;;;5052659;28;20211;-63
2022/05/03 06:18:22;;;;;;;1.40;1.37;;;12.40;99.90;;;;;;5053081;28;20226;-63
2022/05/03 06:20:49;;;;;;;1.30;1.30;;;12.40;99.90;;;;;;5052962;28;20208;-61
2022/05/03 06:23:16;;;;;;;1.40;1.30;;;12.50;99.90;;;;;;5054612;28;20677;-63
2022/05/03 06:25:43;;;;;;;1.23;1.20;;;12.60;99.90;;;;;;5052162;28;20207;-62
2022/05/03 06:28:11;;;;;;;1.47;1.47;;;12.70;99.90;;;;;;5045690;28;20223;-62
2022/05/03 06:30:40;;;;;;;1.50;1.50;;;12.90;99.90;;;;;;5053640;28;20200;-63
2022/05/03 06:33:06;;;;;;;1.30;1.30;;;13.10;99.90;;;;;;5043796;28;20291;-62
2022/05/03 06:35:33;;;;;;;1.10;1.10;;;13.30;99.90;;;;;;5040774;28;20713;-62
2022/05/03 06:38:00;;;;;;;1.30;1.27;;;13.50;99.90;;;;;;5041047;28;20339;-63
2022/05/03 06:40:27;;;;;;;1.60;1.50;;;13.80;99.90;;;;;;5043155;28;20278;-63
2022/05/03 06:42:55;;;;;;;1.50;1.50;;;14.00;99.90;;;;;;5051608;28;20685;-62
2022/05/03 06:45:22;;;;;;;1.47;1.40;;;13.90;99.90;;;;;;5053157;28;20554;-64
2022/05/03 06:47:51;;;;;;;1.60;1.50;;;14.00;99.90;;;;;;5049804;28;20318;-64
2022/05/03 06:50:18;;;;;;;1.60;1.60;;;14.00;99.90;;;;;;5041608;28;20299;-63
2022/05/03 06:52:45;;;;;;;1.70;1.60;;;14.10;99.90;;;;;;5042150;28;20286;-62
2022/05/03 06:55:12;;;;;;;1.55;1.55;;;14.20;99.90;;;;;;5039086;28;20223;-62
2022/05/03 06:57:40;;;;;;;1.90;1.80;;;14.30;99.90;;;;;;5056022;28;20224;-64
2022/05/03 07:00:08;;;;;;;1.90;1.80;;;14.40;99.90;;;;;;5055741;28;20208;-63
2022/05/03 07:02:35;;;;;;;1.92;1.80;;;14.50;99.90;;;;;;5052921;28;20262;-63
2022/05/03 07:05:05;;;;;;;3.30;1.77;;;14.40;99.90;;;;;;5047773;28;20243;-62
2022/05/03 07:07:33;;;;;;;1.77;1.70;;;14.70;99.90;;;;;;5044808;28;20256;-62
2022/05/03 07:10:00;;;;;;;1.80;1.70;;;14.80;99.90;;;;;;5047005;28;20208;-61
2022/05/03 07:12:27;;;;;;;1.90;1.80;;;14.80;99.90;;;;;;5056898;28;20204;-63
2022/05/03 07:14:59;;;;;;;2.00;1.90;;;14.80;99.90;;;;;;5055383;28;20651;-63
2022/05/03 07:22:57;;;;;;;1.90;1.88;;;15.10;99.90;;;;;;5036632;28;20212;-62
2022/05/03 07:25:24;;;;;;;2.20;2.10;;;15.10;99.90;;;;;;5036714;28;20243;-62
2022/05/03 07:27:51;;;;;;;2.17;2.07;;;15.10;99.90;;;;;;5035875;28;20232;-63
2022/05/03 07:30:19;;;;;;;2.10;2.00;;;15.00;99.90;;;;;;5034391;28;20299;-63
2022/05/03 07:32:46;;;;;;;2.63;2.53;;;14.90;99.90;;;;;;5034645;28;20678;-62
2022/05/03 07:35:15;;;;;;;2.50;2.30;;;14.90;99.90;;;;;;5035006;28;20224;-61
2022/05/03 07:37:43;;;;;;;2.40;2.30;;;15.20;99.90;;;;;;5035446;28;20248;-64
2022/05/03 07:40:11;;;;;;;2.47;2.38;;;15.20;99.90;;;;;;5035672;28;20205;-63
2022/05/03 07:42:38;;;;;;;2.40;2.30;;;15.20;99.90;;;;;;5035288;28;20295;-63
2022/05/03 07:45:06;;;;;;;2.40;2.30;;;15.30;99.90;;;;;;5034800;28;20581;-63
2022/05/03 07:47:33;;;;;;;2.35;2.15;;;15.50;99.90;;;;;;5034372;28;20266;-62
2022/05/03 07:50:00;;;;;;;2.33;2.23;;;15.80;99.90;;;;;;5035939;28;21506;-63
2022/05/03 07:52:28;;;;;;;2.57;2.47;;;15.90;99.90;;;;;;5069997;28;20295;-62
2022/05/03 07:54:56;;;;;;;2.30;2.20;;;16.00;99.90;;;;;;5044373;28;20214;-62
2022/05/03 07:57:23;;;;;;;2.20;2.10;;;15.90;99.90;;;;;;5056602;28;20223;-62
2022/05/03 07:59:54;;;;;;;2.70;2.60;;;16.00;99.90;;;;;;5053105;28;20270;-64
2022/05/03 08:02:22;;;;;;;2.57;2.47;;;16.00;99.90;;;;;;5053963;28;20204;-64
2022/05/03 08:04:50;;;;;;;2.50;2.30;;;16.20;99.90;;;;;;5053482;28;20233;-62
2022/05/03 08:07:17;;;;;;;2.20;2.10;;;16.30;99.90;;;;;;5053657;28;20323;-62
2022/05/03 08:09:45;;;;;;;2.30;2.20;;;16.40;99.90;;;;;;5053025;28;20250;-62
2022/05/03 08:12:12;;;;;;;2.00;1.90;;;16.80;99.90;;;;;;5053669;28;20210;-62
2022/05/03 08:14:39;;;;;;;2.30;2.20;;;17.10;99.90;;;;;;5041407;28;20695;-62
2022/05/03 08:17:07;;;;;;;2.20;2.10;;;17.40;99.90;;;;;;5043346;28;20303;-62
2022/05/03 08:19:34;;;;;;;1.83;1.73;;;17.30;99.90;;;;;;5045995;28;20217;-62
2022/05/03 08:22:01;;;;;;;1.60;1.60;;;17.30;99.90;;;;;;5047683;28;20227;-62
2022/05/03 08:24:28;;;;;;;1.90;1.80;;;17.20;99.90;;;;;;5047636;28;20201;-63
2022/05/03 08:26:56;;;;;;;1.80;1.70;;;17.20;99.90;;;;;;5048666;28;20236;-61
2022/05/03 08:29:23;;;;;;;2.00;1.90;;;17.30;99.90;;;;;;5048756;28;20310;-65
2022/05/03 08:31:50;;;;;;;1.80;1.70;;;17.30;99.90;;;;;;5052652;28;20201;-64
2022/05/03 08:34:17;;;;;;;1.70;1.60;;;17.30;99.90;;;;;;5063392;28;20339;-63
2022/05/03 08:42:01;;;;;;;1.93;1.80;;;17.40;99.90;;;;;;5053958;28;20208;-63
2022/05/03 08:42:18;;;;;;;1.50;1.50;;;17.40;99.90;;;;;;5073555;28;20280;-64
2022/05/03 08:44:45;;;;;;;1.90;1.80;;;17.70;99.90;;;;;;5073010;28;20234;-64
2022/05/03 08:47:11;;;;;;;4.97;2.55;;;17.90;99.90;;;;;;5073268;28;20243;-64
2022/05/03 08:49:46;;;;;;;1.87;1.77;;;17.70;99.90;;;;;;5073277;28;20564;-63
2022/05/03 08:52:17;;;;;;;1.90;1.80;;;17.40;99.90;;;;;;5074273;28;20575;-63
2022/05/03 08:54:46;;;;;;;1.60;1.60;;;17.20;99.90;;;;;;5074750;28;20218;-63
2022/05/03 08:57:13;;;;;;;1.80;1.70;;;17.40;99.90;;;;;;5073097;28;20364;-64
2022/05/03 08:59:44;;;;;;;2.03;1.92;;;17.40;99.90;;;;;;5072278;28;20222;-63
2022/05/03 09:02:12;;;;;;;1.50;1.50;;;17.60;99.90;;;;;;5073574;28;20203;-63
2022/05/03 09:04:39;;;;;;;1.60;1.60;;;17.70;99.90;;;;;;5073461;28;20226;-64
2022/05/03 09:07:20;;;;;;;1.95;1.85;;;17.80;99.90;;;;;;5072945;28;20302;-63
2022/05/03 09:09:48;;;;;;;1.60;1.60;;;18.10;99.90;;;;;;5074494;22;20234;-66
2022/05/03 09:12:23;;;;;;;1.80;1.70;;;18.10;99.90;;;;;;5060989;28;20200;-66
2022/05/03 09:14:52;;;;;;;1.83;1.73;;;18.20;99.90;;;;;;5055431;28;20227;-67
2022/05/03 09:17:37;;;;;;;1.60;1.50;;;18.50;99.90;;;;;;5069387;28;20211;-66
2022/05/03 09:25:49;;;;;;;1.50;1.40;;;19.00;99.90;;;;;;5072598;28;20186;-67
2022/05/03 09:28:16;;;;;;;1.60;1.60;;;19.10;99.90;;;;;;5061199;28;20234;-66
2022/05/03 09:30:50;;;;;;;1.70;1.60;;;19.20;99.90;;;;;;5070892;28;20210;-65
2022/05/03 09:33:18;;;;;;;1.60;1.50;;;19.20;99.90;;;;;;5072390;28;20191;-67
2022/05/03 09:35:46;;;;;;;1.40;1.40;;;18.90;99.90;;;;;;5073116;28;20227;-66
2022/05/03 09:38:13;;;;;;;1.90;1.80;;;18.90;99.90;;;;;;5072747;28;20309;-67
2022/05/03 09:40:41;;;;;;;2.10;2.00;;;18.80;99.90;;;;;;5072851;28;20207;-67
2022/05/03 09:43:09;;;;;;;1.80;1.70;;;18.60;99.90;;;;;;5072344;28;20290;-66
2022/05/03 09:45:37;;;;;;;1.90;1.80;;;18.70;99.90;;;;;;5072167;28;20695;-67
2022/05/03 09:48:06;;;;;;;1.80;1.70;;;18.90;99.90;;;;;;5072507;28;20223;-67
2022/05/03 09:50:42;;;;;;;1.93;1.83;;;19.10;99.90;;;;;;5067161;28;20210;-66
2022/05/03 09:53:16;;;;;;;1.80;1.70;;;19.30;99.90;;;;;;5068843;28;20657;-68
2022/05/03 09:55:45;;;;;;;2.00;1.90;;;19.50;99.90;;;;;;5078024;28;20250;-67
2022/05/03 09:58:13;;;;;;;2.17;2.07;;;19.20;99.90;;;;;;5076754;28;20234;-67
2022/05/03 10:00:42;;;;;;;1.70;1.60;;;19.10;99.90;;;;;;5072264;28;20294;-66
2022/05/03 10:03:11;;;;;;;1.90;1.80;;;19.40;99.90;;;;;;5070965;28;20221;-67
2022/05/03 10:05:40;;;;;;;1.83;1.73;;;19.50;99.90;;;;;;5071870;28;20270;-66
2022/05/03 10:08:11;;;;;;;2.00;1.90;;;19.40;99.90;;;;;;5072086;28;20304;-68
2022/05/03 10:10:41;;;;;;;1.70;1.60;;;19.60;99.90;;;;;;5072788;28;20231;-67
2022/05/03 10:13:08;;;;;;;1.77;1.67;;;19.70;99.90;;;;;;5072468;28;20241;-67
2022/05/03 10:21:16;;;;;;;1.90;1.80;;;19.60;99.90;;;;;;5073063;28;20206;-67
2022/05/03 10:24:02;;;;;;;2.20;2.10;;;19.90;99.90;;;;;;5072876;28;20537;-67
2022/05/03 10:27:01;;;;;;;2.30;2.20;;;20.20;99.90;;;;;;5072381;28;20202;-68
2022/05/03 10:29:28;;;;;;;1.95;1.83;;;20.10;99.90;;;;;;5070872;28;20231;-67
2022/05/03 10:31:59;;;;;;;1.98;1.88;;;20.30;99.90;;;;;;5071749;28;20226;-67
2022/05/03 10:35:03;;;;;;;1.90;1.80;;;20.70;99.90;;;;;;5071965;28;20298;-67
2022/05/03 10:38:04;;;;;;;2.28;2.08;;;21.00;99.90;;;;;;5071518;28;20203;-67
2022/05/03 10:40:34;;;;;;;1.67;1.65;;;21.00;99.90;;;;;;5071275;28;20206;-66
2022/05/03 10:43:10;;;;;;;1.80;1.70;;;21.40;99.90;;;;;;5071613;28;20662;-68
2022/05/03 10:45:54;;;;;;;1.73;1.63;;;21.60;99.90;;;;;;5071819;28;20183;-67
2022/05/03 10:48:26;;;;;;;1.77;1.70;;;21.90;99.90;;;;;;5074045;28;20254;-67
2022/05/03 10:50:57;;;;;;;1.60;1.50;;;22.00;99.90;;;;;;5078393;28;20268;-67
2022/05/03 10:53:32;;;;;;;1.88;1.77;;;21.90;99.90;;;;;;5075677;28;20574;-67
2022/05/03 10:56:12;;;;;;;1.80;1.70;;;21.80;99.90;;;;;;5075557;28;20214;-66
2022/05/03 10:58:40;;;;;;;1.60;1.50;;;21.60;99.90;;;;;;5075170;28;20277;-66
2022/05/03 11:01:09;;;;;;;1.52;1.42;;;21.40;99.90;;;;;;5076336;28;20200;-66
2022/05/03 11:03:37;;;;;;;1.50;1.50;;;21.40;99.90;;;;;;5075391;28;20290;-67
2022/05/03 11:06:46;;;;;;;1.27;1.27;;;21.60;99.90;;;;;;5075437;28;20290;-67
2022/05/03 11:09:15;;;;;;;1.00;1.00;;;22.10;99.90;;;;;;5074986;28;20239;-67
2022/05/03 11:11:57;;;;;;;0.90;0.90;;;22.40;99.90;;;;;;5076029;28;20231;-67
2022/05/03 11:14:45;;;;;;;0.60;0.60;;;22.70;99.90;;;;;;5076769;28;20234;-67
2022/05/03 11:17:12;;;;;;;0.60;0.60;;;22.90;99.90;;;;;;5076837;28;20275;-67
2022/05/03 11:19:47;;;;;;;0.70;0.70;;;23.20;99.90;;;;;;5076705;28;20592;-67
2022/05/03 11:22:16;;;;;;;0.80;0.80;;;23.40;99.90;;;;;;5097611;28;20206;-68
2022/05/03 11:24:44;;;;;;;0.70;0.70;;;23.70;99.90;;;;;;5096187;28;20203;-67
2022/05/03 11:27:14;;;;;;;0.60;0.60;;;23.70;99.90;;;;;;5095881;28;20215;-67
2022/05/03 11:29:42;;;;;;;0.60;0.60;;;23.80;99.90;;;;;;5079747;28;20368;-67
2022/05/03 11:32:10;;;;;;;0.60;0.60;;;23.40;99.90;;;;;;5079017;28;20285;-67
2022/05/03 11:34:39;;;;;;;0.63;0.63;;;23.50;99.90;;;;;;5074650;28;20661;-66
2022/05/03 11:37:07;;;;;;;0.63;0.63;;;23.50;99.90;;;;;;5074470;28;20227;-67
2022/05/03 11:39:36;;;;;;;0.80;0.80;;;23.40;99.90;;;;;;5074742;28;20223;-68
2022/05/03 11:42:06;;;;;;;0.80;0.80;;;23.60;99.90;;;;;;5079879;28;20237;-66
2022/05/03 11:44:33;;;;;;;0.70;0.70;;;23.70;99.90;;;;;;5078041;28;20203;-66
2022/05/03 11:47:03;;;;;;;0.75;0.70;;;23.60;99.90;;;;;;5075521;28;20199;-66
2022/05/03 11:49:32;;;;;;;0.60;0.60;;;23.90;99.90;;;;;;5075284;28;20268;-66
2022/05/03 11:57:35;;;;;;;0.80;0.80;;;24.40;99.90;;;;;;5076619;28;20293;-68
2022/05/03 12:00:05;;;;;;;0.60;0.60;;;24.60;99.90;;;;;;5096270;28;20247;-67
2022/05/03 12:02:34;;;;;;;0.70;0.70;;;24.70;99.90;;;;;;5096732;28;20195;-67
2022/05/03 12:05:04;;;;;;;0.70;0.70;;;24.70;99.90;;;;;;5095659;28;20299;-69
2022/05/03 12:07:31;;;;;;;0.60;0.60;;;25.00;99.90;;;;;;5088444;28;20195;-66
2022/05/03 12:09:59;;;;;;;0.80;0.80;;;25.20;99.90;;;;;;5075976;28;20288;-68
2022/05/03 12:12:45;;;;;;;0.60;0.60;;;25.20;99.90;;;;;;5074505;28;20632;-69
2022/05/03 12:15:31;;;;;;;0.60;0.60;;;24.90;99.90;;;;;;5074259;28;20235;-68
2022/05/03 12:18:01;;;;;;;0.63;0.63;;;24.60;99.90;;;;;;5074191;28;20203;-67
2022/05/03 12:20:40;;;;;;;0.75;0.75;;;24.70;99.90;;;;;;5073537;28;20207;-68
2022/05/03 12:23:19;;;;;;;0.80;0.80;;;24.70;99.90;;;;;;5074229;28;20191;-67
2022/05/03 12:25:50;;;;;;;0.47;0.47;;;24.70;99.90;;;;;;5073714;28;20286;-68
2022/05/03 12:28:17;;;;;;;0.70;0.70;;;24.80;99.90;;;;;;5073759;28;20302;-67
2022/05/03 12:30:45;;;;;;;0.60;0.60;;;25.00;99.90;;;;;;5073656;28;20241;-67
2022/05/03 12:33:15;;;;;;;0.80;0.80;;;25.00;99.90;;;;;;5073897;28;20215;-68
2022/05/03 12:35:44;;;;;;;0.60;0.60;;;25.10;99.90;;;;;;5074216;28;20594;-67
2022/05/03 12:38:13;;;;;;;0.70;0.70;;;25.00;99.90;;;;;;5073641;28;20223;-67
2022/05/03 12:40:46;;;;;;;0.63;0.63;;;24.80;99.90;;;;;;5073189;28;20294;-67
2022/05/03 12:43:19;;;;;;;0.55;0.55;;;24.60;99.90;;;;;;5074837;28;20211;-67
2022/05/03 12:46:03;;;;;;;0.60;0.60;;;24.80;99.90;;;;;;5074860;28;20207;-67
2022/05/03 12:48:31;;;;;;;0.55;0.55;;;24.80;99.90;;;;;;5072611;28;20251;-68
2022/05/03 12:50:59;;;;;;;0.45;0.45;;;24.70;99.90;;;;;;5073659;28;20199;-67
2022/05/03 12:53:27;;;;;;;0.75;0.75;;;24.50;99.90;;;;;;5073588;28;20211;-68
2022/05/03 12:55:55;;;;;;;0.60;0.60;;;24.40;99.90;;;;;;5073618;28;20259;-68
2022/05/03 12:58:24;;;;;;;0.70;0.70;;;24.20;99.90;;;;;;5072892;28;20306;-68
2022/05/03 13:00:53;;;;;;;0.60;0.60;;;24.10;99.90;;;;;;5073264;28;20207;-66
2022/05/03 13:03:21;;;;;;;0.60;0.60;;;24.10;99.90;;;;;;5073066;28;20696;-67
2022/05/03 13:05:48;;;;;;;0.57;0.57;;;24.10;99.90;;;;;;5073334;28;20195;-67
2022/05/03 13:08:15;;;;;;;0.60;0.60;;;24.20;99.90;;;;;;5072305;28;20284;-68
2022/05/03 13:10:42;;;;;;;1.10;0.80;;;24.10;99.90;;;;;;5071750;28;20239;-68
2022/05/03 13:13:09;;;;;;;0.68;0.68;;;24.00;99.90;;;;;;5073688;28;20547;-68
2022/05/03 13:15:39;;;;;;;0.50;0.50;;;23.80;99.90;;;;;;5072574;28;20227;-67
2022/05/03 13:18:06;;;;;;;0.60;0.60;;;23.60;99.90;;;;;;5075277;28;20581;-67
2022/05/03 13:20:33;;;;;;;0.68;0.68;;;23.60;99.90;;;;;;5073178;28;20245;-67
2022/05/03 13:23:00;;;;;;;0.70;0.70;;;23.70;99.90;;;;;;5073501;28;20231;-66
2022/05/03 13:25:27;;;;;;;0.60;0.60;;;23.80;99.90;;;;;;5073120;28;20239;-67
2022/05/03 13:27:54;;;;;;;0.60;0.60;;;23.90;99.90;;;;;;5073202;28;20203;-69
2022/05/03 13:30:21;;;;;;;0.80;0.80;;;23.90;99.90;;;;;;5080547;28;20748;-69
2022/05/03 13:32:49;;;;;;;0.70;0.70;;;24.00;99.90;;;;;;5088909;28;20195;-69
2022/05/03 13:40:28;;;;;;;0.70;0.70;;;24.10;99.90;;;;;;5090483;28;20215;-68
2022/05/03 13:40:48;;;;;;;0.70;0.70;;;24.10;99.90;;;;;;5072128;28;20206;-67